KAOO/AOO METAR and TAF weather

Enter ICAO airport designator
Station Type Date Time Source
KAOO METAR 2021/05/14 22:53 UTC NOAA

KAOO 142253Z AUTO 26006KT 10SM CLR 19/M01 A3021 RMK AO2 SLP233 T01891006


Station Type Date Time Source
KAOO Decoded METAR 2021/05/14 22:53 UTC NOAA

ALTOONA-BLAIR COUNTY AIRPORT, PA, United States (KAOO) 40-18N 78-19W 455M
May 14, 2021 - 06:53 PM EDT / 2021.05.14 2253 UTC
Wind: from the W (260 degrees) at 7 MPH (6 KT):0
Visibility: 10 mile(s):0
Sky conditions: clear
Temperature: 66.0 F (18.9 C)
Dew Point: 30.9 F (-0.6 C)
Relative Humidity: 26%
Pressure (altimeter): 30.21 in. Hg (1023 hPa)
ob: KAOO 142253Z AUTO 26006KT 10SM CLR 19/M01 A3021 RMK AO2 SLP233 T01891006
cycle: 23

Station Type Date Time Source
KAOO TAF 2021/05/14 22:46 UTC NOAA

TAF
AMD KAOO 142144Z 1422/1518 28005KT P6SM BKN090
FM150200 00000KT P6SM SKC
FM151400 22003KT P6SM SCT090

Example: see airport list